Main page
METAR-TAF:

METAR-TAF

Airports :

Paderborn-Lippstadt, Germany

Paderborn Lippstadt Airport

latitude: 51-37N, longitude: 008-37E, elevation: 213 m

Current weather observation

The report was made 31 minutes ago, at 23:50 UTC
Wind 4 kt from the East
Temperature -4°C
Humidity 86%
Pressure 1022 hPa
Visibility 10 km or more
no clouds below 1500 m and no cumulonimbus

METAR: EDLP 222350Z 08004KT CAVOK M04/M06 Q1022

Time: 01:21 (00:21 UTC)

Forecast

The report was made 1 hour and 21 minutes ago, at 23:00 UTC
Forecast valid from 23 at 00 UTC to 23 at 24 UTC
Wind 7 kt from the East
Visibility 10 km or more
no clouds below 1500 m and no cumulonimbus
Becoming
from 23 at 08 UTC to 23 at 10 UTC
Wind 12 kt from the East
Probability 30% :
Temporary
from 23 at 12 UTC to 23 at 16 UTC
Wind 15 kt from the East with gusts up to 25 kt

TAF: EDLP 222300Z 2300/2324 08007KT CAVOK BECMG 2308/2310 08012KT PROB30 TEMPO 2312/2316 08015G25KT

Weather observations and forecasts of more than 4000 airports (METAR and TAF reports).

The available stations are represented by yellow and red dots on the map.

Hover mouse over dot to see the name of the station.

Then click to see weather observations and forecasts.

To change the map : click on the green buttons with a black cross to zoom in, on the green button with a dash to zoom out, or on the green arrows for adjacent maps.


METAR-TAF: